sim
Sign-in with your pilot id or email,
or register
Callsign
Passwort

Schedule Details

Flight Number: EWG1914 (1)
Departure: Munich Airport (EDDM) at 09:35
Arrival: Dusseldorf International Airport (EDDL) at 10:50
Route: Eurowings Passenger Schedule. Enter filed route here before submitting Pirep.

Weather Information
Getting current METAR information for EDDM 291550Z 26008KT 230V290 9999 BKN014 12/09 Q1019 NOSIG
Getting current METAR information for EDDL 291550Z 15007KT 9999 BKN046 14/12 Q1016 NOSIG

Schedule Frequency

Route Map